createdAt,value
2023-04-02T00:00:30.526Z,6.88
2023-04-02T00:06:40.521Z,6.68
2023-04-02T00:13:00.526Z,6.47
2023-04-02T00:19:06.275Z,6.90
2023-04-02T00:25:15.433Z,6.60
2023-04-02T00:31:20.833Z,6.30
2023-04-02T00:37:28.211Z,5.82
2023-04-02T00:43:33.218Z,6.35
2023-04-02T00:49:40.654Z,5.57
2023-04-02T00:55:44.507Z,6.25
2023-04-02T01:01:54.456Z,6.78
2023-04-02T01:08:04.255Z,7.38
2023-04-02T01:14:11.553Z,7.32
2023-04-02T01:20:26.029Z,8.57
2023-04-02T01:26:38.038Z,7.97
2023-04-02T01:32:43.040Z,9.32
2023-04-02T01:38:49.702Z,9.45
2023-04-02T01:44:54.255Z,8.95
2023-04-02T01:51:00.538Z,8.65
2023-04-02T01:57:04.174Z,8.68
2023-04-02T02:03:08.759Z,8.90
2023-04-02T02:09:18.258Z,8.73
2023-04-02T02:15:22.547Z,8.45
2023-04-02T02:21:31.735Z,8.48
2023-04-02T02:28:04.986Z,8.73
2023-04-02T02:34:14.789Z,9.13
2023-04-02T02:40:20.747Z,9.27
2023-04-02T02:46:25.685Z,9.18
2023-04-02T02:52:32.435Z,7.88
2023-04-02T02:58:36.410Z,11.25
2023-04-02T03:04:40.300Z,9.15
2023-04-02T03:10:47.364Z,8.13
2023-04-02T03:16:52.505Z,8.82
2023-04-02T03:22:58.252Z,8.80
2023-04-02T03:29:04.596Z,8.60
2023-04-02T03:35:12.707Z,8.10
2023-04-02T03:41:18.995Z,8.18
2023-04-02T03:47:27.462Z,8.18
2023-04-02T03:53:32.477Z,8.75
2023-04-02T03:59:40.545Z,10.48
2023-04-02T04:05:49.077Z,10.55
2023-04-02T04:11:54.370Z,10.77
2023-04-02T04:18:02.457Z,8.90
2023-04-02T04:24:09.061Z,9.07
2023-04-02T04:30:18.596Z,8.55
2023-04-02T04:36:28.642Z,7.53
2023-04-02T04:42:35.751Z,7.70
2023-04-02T04:48:41.116Z,9.65
2023-04-02T04:54:44.693Z,8.77
2023-04-02T05:00:52.881Z,9.27
2023-04-02T05:06:57.687Z,8.52
2023-04-02T05:13:03.326Z,8.02
2023-04-02T05:19:10.806Z,8.35
2023-04-02T05:25:19.202Z,9.02
2023-04-02T05:31:25.997Z,8.50
2023-04-02T05:37:32.315Z,11.63
2023-04-02T05:43:37.185Z,10.10
2023-04-02T05:49:44.574Z,10.00
2023-04-02T05:55:54.763Z,8.68
2023-04-02T06:02:03.385Z,8.55
2023-04-02T06:08:08.410Z,9.82
2023-04-02T06:14:14.519Z,9.65
2023-04-02T06:20:19.299Z,9.30
2023-04-02T06:26:25.984Z,10.45
2023-04-02T06:32:30.785Z,8.82
2023-04-02T06:38:34.632Z,9.38
2023-04-02T06:44:38.865Z,10.18
2023-04-02T06:50:46.069Z,10.77
2023-04-02T06:56:50.818Z,9.68
2023-04-02T07:02:55.400Z,8.80
2023-04-02T07:09:00.614Z,9.75
2023-04-02T07:15:04.373Z,9.60
2023-04-02T07:21:07.998Z,10.48
2023-04-02T07:27:13.048Z,8.93
2023-04-02T07:33:17.024Z,9.82
2023-04-02T07:39:20.420Z,9.18
2023-04-02T07:45:25.223Z,11.38
2023-04-02T07:51:28.669Z,12.60
2023-04-02T07:57:32.217Z,9.65
2023-04-02T08:03:37.250Z,11.65
2023-04-02T08:09:40.698Z,11.10
2023-04-02T08:15:44.453Z,11.05
2023-04-02T08:21:51.724Z,11.18
2023-04-02T08:27:55.222Z,9.70
2023-04-02T08:33:58.932Z,8.20
2023-04-02T08:40:04.632Z,7.85
2023-04-02T08:46:11.763Z,8.18
2023-04-02T08:52:20.913Z,8.07
2023-04-02T08:58:31.693Z,9.35
2023-04-02T09:04:37.058Z,8.70
2023-04-02T09:10:42.403Z,8.05
2023-04-02T09:16:48.983Z,8.43
2023-04-02T09:22:53.619Z,8.23
2023-04-02T09:29:02.170Z,8.20
2023-04-02T09:35:24.701Z,8.63
2023-04-02T09:41:30.734Z,7.03
2023-04-02T09:47:34.255Z,6.80
2023-04-02T09:53:41.861Z,7.60
2023-04-02T09:59:46.189Z,7.65
2023-04-02T10:05:49.862Z,8.10
2023-04-02T10:11:55.847Z,9.48
2023-04-02T10:18:03.781Z,9.50
2023-04-02T10:24:12.471Z,9.27
2023-04-02T10:30:25.053Z,9.88
2023-04-02T10:36:36.405Z,8.73
2023-04-02T10:42:45.388Z,7.82
2023-04-02T10:48:54.161Z,5.65
2023-04-02T10:54:59.997Z,6.70
2023-04-02T11:01:05.417Z,6.72
2023-04-02T11:07:17.280Z,6.75
2023-04-02T11:13:24.457Z,5.78
2023-04-02T11:19:30.383Z,6.28
2023-04-02T11:25:35.377Z,6.00
2023-04-02T11:31:39.453Z,6.25
2023-04-02T11:37:44.779Z,8.23
2023-04-02T11:43:53.238Z,9.23
2023-04-02T11:50:01.551Z,9.57
2023-04-02T11:56:09.480Z,11.30
2023-04-02T12:02:20.116Z,9.68
2023-04-02T12:08:27.805Z,8.32
2023-04-02T12:14:35.119Z,8.98
2023-04-02T12:20:40.052Z,9.18
2023-04-02T12:26:46.496Z,11.50
2023-04-02T12:32:50.595Z,11.60
2023-04-02T12:38:57.028Z,9.15
2023-04-02T12:45:00.728Z,11.18
2023-04-02T12:51:04.669Z,10.57
2023-04-02T12:57:38.181Z,9.30
2023-04-02T13:03:43.086Z,9.02
2023-04-02T13:09:48.340Z,6.60
2023-04-02T13:16:02.616Z,5.55
2023-04-02T13:22:28.560Z,7.30
2023-04-02T13:28:31.991Z,7.80
2023-04-02T13:34:35.413Z,8.38
2023-04-02T13:40:40.617Z,6.78
2023-04-02T13:46:44.047Z,6.97
2023-04-02T13:52:47.615Z,8.05
2023-04-02T13:58:52.457Z,8.25
2023-04-02T14:05:03.913Z,11.70
2023-04-02T14:11:12.889Z,9.60
2023-04-02T14:17:23.732Z,9.00
2023-04-02T14:23:31.506Z,8.55
2023-04-02T14:29:38.498Z,8.95
2023-04-02T14:35:45.242Z,6.63
2023-04-02T14:41:51.754Z,6.40
2023-04-02T14:47:58.955Z,5.07
2023-04-02T14:54:06.658Z,5.25
2023-04-02T15:00:24.489Z,5.22
2023-04-02T15:06:33.498Z,5.72
2023-04-02T15:12:39.751Z,4.90
2023-04-02T15:18:43.267Z,4.72
2023-04-02T15:24:50.246Z,4.63
2023-04-02T15:30:57.161Z,4.10
2023-04-02T15:37:03.590Z,4.15
2023-04-02T15:43:12.674Z,5.95
2023-04-02T15:49:22.124Z,7.28
2023-04-02T15:55:27.996Z,7.05
2023-04-02T16:01:37.554Z,7.05
2023-04-02T16:07:58.662Z,9.68
2023-04-02T16:14:17.783Z,8.25
2023-04-02T16:20:22.725Z,8.48
2023-04-02T16:26:33.740Z,7.85
2023-04-02T16:32:54.475Z,7.90
2023-04-02T16:39:00.446Z,7.82
2023-04-02T16:45:09.784Z,8.25
2023-04-02T16:51:18.469Z,7.50
2023-04-02T16:57:27.451Z,7.05
2023-04-02T17:03:41.320Z,7.00
2023-04-02T17:09:51.157Z,7.10
2023-04-02T17:15:57.335Z,6.03
2023-04-02T17:22:02.904Z,7.25
2023-04-02T17:28:11.501Z,7.13
2023-04-02T17:34:15.731Z,7.40
2023-04-02T17:40:24.118Z,7.82
2023-04-02T17:46:35.601Z,8.25
2023-04-02T17:52:41.593Z,7.93
2023-04-02T17:58:59.081Z,7.78
2023-04-02T18:05:07.349Z,7.68
2023-04-02T18:11:11.966Z,8.20
2023-04-02T18:17:19.342Z,8.13
2023-04-02T18:23:28.743Z,10.18
2023-04-02T18:29:37.331Z,13.48
2023-04-02T18:35:41.973Z,16.20
2023-04-02T18:41:48.931Z,7.70
2023-04-02T18:47:56.758Z,7.45
2023-04-02T18:54:04.757Z,7.72
2023-04-02T19:00:18.376Z,7.32
2023-04-02T19:06:23.776Z,7.40
2023-04-02T19:12:27.261Z,7.15
2023-04-02T19:18:36.790Z,7.70
2023-04-02T19:24:46.812Z,7.55
2023-04-02T19:31:09.350Z,10.38
2023-04-02T19:37:18.078Z,13.38
2023-04-02T19:43:21.495Z,14.63
2023-04-02T19:49:26.660Z,13.48
2023-04-02T19:55:31.444Z,10.35
2023-04-02T20:01:34.949Z,10.10
2023-04-02T20:07:38.360Z,9.52
2023-04-02T20:13:43.129Z,9.90
2023-04-02T20:19:46.624Z,9.07
2023-04-02T20:25:53.222Z,9.50
2023-04-02T20:31:58.347Z,8.18
2023-04-02T20:38:03.108Z,9.18
2023-04-02T20:44:06.798Z,7.50
2023-04-02T20:50:12.755Z,7.22
2023-04-02T20:56:17.292Z,7.25
2023-04-02T21:02:20.715Z,7.07
2023-04-02T21:08:25.611Z,8.05
2023-04-02T21:14:31.641Z,7.80
2023-04-02T21:20:35.060Z,8.02
2023-04-02T21:26:41.021Z,8.07
2023-04-02T21:32:44.441Z,7.53
2023-04-02T21:38:48.717Z,7.00
2023-04-02T21:44:53.563Z,7.03
2023-04-02T21:50:57.228Z,6.57
2023-04-02T21:57:00.818Z,7.70
2023-04-02T22:03:05.839Z,7.45
2023-04-02T22:09:10.507Z,7.80
2023-04-02T22:15:13.928Z,7.43
2023-04-02T22:21:18.888Z,8.05
2023-04-02T22:27:22.332Z,8.15
2023-04-02T22:33:27.309Z,8.57
2023-04-02T22:39:32.062Z,8.65
2023-04-02T22:45:35.958Z,8.18
2023-04-02T22:51:39.363Z,7.97
2023-04-02T22:57:44.347Z,8.02
2023-04-02T23:03:47.928Z,8.90
2023-04-02T23:09:54.477Z,8.07
2023-04-02T23:15:59.647Z,8.45
2023-04-02T23:22:03.111Z,9.18
2023-04-02T23:28:07.243Z,8.77
2023-04-02T23:34:12.203Z,7.47
2023-04-02T23:40:15.677Z,7.57
2023-04-02T23:46:19.368Z,7.88
2023-04-02T23:52:24.225Z,8.27
2023-04-02T23:58:27.952Z,7.25
